UAE612 OMDB-OPIS
Flight info
| Callsign | UAE612 |
|---|---|
| Flight time | 2h 6m |
| Altitude | 35000 |
| Route | ANVIX L223 TARDI N629 MUSUK T511 MCT T500 VUSET R462 EGTAL B505 PG G325 HANGU J139 KALMI |
| Aircraft | B77W/H-SDE1E2E3FGHIJ2J3J4J5M1RWXY/LB1D1 |
Departure
| Time | 2026-05-06 21:12 |
|---|---|
| Airport | Dubai International Airport (OMDB) |
Arrival
| Time | 2026-05-06 23:19 |
|---|---|
| Airport | Islamabad International Airport (OPIS) |
| Time | Latitude | Longitude | Altitude | Speed | Heading |
|---|---|---|---|---|---|
| 2026-05-06 20:47 | 25.25192 | 55.35717 | 27 ft | 0 kts | 211° |
| 2026-05-06 20:58 | 25.25196 | 55.35720 | 27 ft | 2 kts | 211° |
| 2026-05-06 20:58 | 25.25213 | 55.35731 | 27 ft | 2 kts | 211° |
| 2026-05-06 20:59 | 25.25226 | 55.35740 | 27 ft | 2 kts | 213° |
| 2026-05-06 20:59 | 25.25234 | 55.35746 | 27 ft | 2 kts | 223° |
| 2026-05-06 20:59 | 25.25246 | 55.35763 | 27 ft | 2 kts | 241° |
| 2026-05-06 20:59 | 25.25251 | 55.35773 | 27 ft | 2 kts | 249° |
| 2026-05-06 21:00 | 25.25255 | 55.35789 | 27 ft | 2 kts | 261° |
| 2026-05-06 21:00 | 25.25256 | 55.35811 | 27 ft | 2 kts | 277° |
| 2026-05-06 21:00 | 25.25253 | 55.35827 | 27 ft | 2 kts | 290° |
| 2026-05-06 21:00 | 25.25247 | 55.35840 | 27 ft | 0 kts | 300° |
| 2026-05-06 21:01 | 25.25246 | 55.35843 | 27 ft | 0 kts | 302° |
| 2026-05-06 21:02 | 25.25252 | 55.35833 | 27 ft | 3 kts | 300° |
| 2026-05-06 21:03 | 25.25274 | 55.35789 | 27 ft | 10 kts | 299° |
| 2026-05-06 21:03 | 25.25303 | 55.35731 | 27 ft | 15 kts | 298° |
| 2026-05-06 21:03 | 25.25372 | 55.35603 | 27 ft | 13 kts | 301° |
| 2026-05-06 21:03 | 25.25426 | 55.35507 | 27 ft | 17 kts | 300° |
| 2026-05-06 21:04 | 25.25491 | 55.35381 | 27 ft | 18 kts | 302° |
| 2026-05-06 21:04 | 25.25562 | 55.35270 | 27 ft | 16 kts | 307° |
| 2026-05-06 21:04 | 25.25610 | 55.35188 | 27 ft | 12 kts | 303° |
| 2026-05-06 21:04 | 25.25689 | 55.35164 | 26 ft | 15 kts | 31° |
| 2026-05-06 21:05 | 25.25787 | 55.35233 | 27 ft | 18 kts | 33° |
| 2026-05-06 21:05 | 25.25899 | 55.35316 | 27 ft | 18 kts | 35° |
| 2026-05-06 21:05 | 25.25985 | 55.35426 | 27 ft | 19 kts | 70° |
| 2026-05-06 21:05 | 25.25964 | 55.35571 | 27 ft | 20 kts | 120° |
| 2026-05-06 21:06 | 25.25891 | 55.35706 | 27 ft | 20 kts | 121° |
| 2026-05-06 21:06 | 25.25839 | 55.35798 | 27 ft | 21 kts | 122° |
| 2026-05-06 21:06 | 25.25762 | 55.35938 | 27 ft | 21 kts | 121° |
| 2026-05-06 21:06 | 25.25657 | 55.36131 | 28 ft | 22 kts | 121° |
| 2026-05-06 21:07 | 25.25576 | 55.36276 | 29 ft | 21 kts | 121° |
| 2026-05-06 21:07 | 25.25499 | 55.36415 | 30 ft | 20 kts | 122° |
| 2026-05-06 21:07 | 25.25424 | 55.36540 | 30 ft | 19 kts | 125° |
| 2026-05-06 21:07 | 25.25357 | 55.36670 | 31 ft | 20 kts | 118° |
| 2026-05-06 21:08 | 25.25290 | 55.36796 | 32 ft | 17 kts | 119° |
| 2026-05-06 21:08 | 25.25249 | 55.36869 | 33 ft | 16 kts | 121° |
| 2026-05-06 21:08 | 25.25178 | 55.36993 | 34 ft | 12 kts | 123° |
| 2026-05-06 21:08 | 25.25134 | 55.37072 | 35 ft | 12 kts | 119° |
| 2026-05-06 21:09 | 25.25088 | 55.37166 | 36 ft | 15 kts | 117° |
| 2026-05-06 21:09 | 25.25029 | 55.37272 | 37 ft | 15 kts | 123° |
| 2026-05-06 21:09 | 25.24958 | 55.37395 | 38 ft | 19 kts | 122° |
| 2026-05-06 21:09 | 25.24890 | 55.37515 | 40 ft | 16 kts | 122° |
| 2026-05-06 21:10 | 25.24829 | 55.37622 | 41 ft | 17 kts | 121° |
| 2026-05-06 21:10 | 25.24759 | 55.37750 | 42 ft | 21 kts | 120° |
| 2026-05-06 21:10 | 25.24681 | 55.37889 | 43 ft | 17 kts | 122° |
| 2026-05-06 21:10 | 25.24715 | 55.37983 | 43 ft | 14 kts | 32° |
| 2026-05-06 21:11 | 25.24796 | 55.38023 | 43 ft | 10 kts | 346° |
| 2026-05-06 21:11 | 25.24816 | 55.38009 | 42 ft | 1 kts | 317° |
| 2026-05-06 21:11 | 25.24827 | 55.37991 | 43 ft | 8 kts | 302° |
| 2026-05-06 21:11 | 25.24865 | 55.37924 | 42 ft | 26 kts | 301° |
| 2026-05-06 21:12 | 25.25099 | 55.37501 | 41 ft | 102 kts | 301° |
| 2026-05-06 21:12 | 25.25818 | 55.36202 | 91 ft | 183 kts | 303° |
| 2026-05-06 21:12 | 25.26268 | 55.35409 | 453 ft | 191 kts | 303° |
| 2026-05-06 21:12 | 25.26957 | 55.34157 | 1299 ft | 195 kts | 300° |
| 2026-05-06 21:13 | 25.27907 | 55.32414 | 2128 ft | 202 kts | 300° |
| 2026-05-06 21:13 | 25.28395 | 55.31527 | 2445 ft | 211 kts | 300° |
| 2026-05-06 21:13 | 25.28993 | 55.30008 | 2974 ft | 225 kts | 278° |
| 2026-05-06 21:13 | 25.28725 | 55.27668 | 3781 ft | 242 kts | 248° |
| 2026-05-06 21:14 | 25.28056 | 55.25957 | 4525 ft | 248 kts | 244° |
| 2026-05-06 21:14 | 25.27331 | 55.24250 | 5386 ft | 250 kts | 243° |
| 2026-05-06 21:14 | 25.26587 | 55.22505 | 6229 ft | 252 kts | 243° |
| 2026-05-06 21:14 | 25.25830 | 55.20729 | 6889 ft | 261 kts | 243° |
| 2026-05-06 21:15 | 25.25025 | 55.18921 | 7554 ft | 268 kts | 236° |
| 2026-05-06 21:15 | 25.24227 | 55.17900 | 8008 ft | 271 kts | 217° |
| 2026-05-06 21:15 | 25.22536 | 55.16982 | 8637 ft | 277 kts | 187° |
| 2026-05-06 21:15 | 25.20611 | 55.16860 | 9305 ft | 280 kts | 171° |
| 2026-05-06 21:16 | 25.18769 | 55.17520 | 10049 ft | 276 kts | 142° |
| 2026-05-06 21:16 | 25.17141 | 55.19575 | 11049 ft | 270 kts | 112° |
| 2026-05-06 21:16 | 25.16345 | 55.21435 | 11770 ft | 273 kts | 111° |
| 2026-05-06 21:16 | 25.15502 | 55.23333 | 12508 ft | 275 kts | 113° |
| 2026-05-06 21:17 | 25.14622 | 55.25209 | 13231 ft | 278 kts | 113° |
| 2026-05-06 21:17 | 25.14021 | 55.26467 | 13684 ft | 280 kts | 114° |
| 2026-05-06 21:17 | 25.12806 | 55.28993 | 14572 ft | 285 kts | 114° |
| 2026-05-06 21:17 | 25.12188 | 55.30276 | 15014 ft | 287 kts | 115° |
| 2026-05-06 21:18 | 25.10932 | 55.32887 | 15864 ft | 292 kts | 115° |
| 2026-05-06 21:18 | 25.10310 | 55.34217 | 16282 ft | 294 kts | 112° |
| 2026-05-06 21:18 | 25.09198 | 55.36971 | 17134 ft | 297 kts | 111° |
| 2026-05-06 21:18 | 25.08362 | 55.39049 | 17704 ft | 302 kts | 112° |
| 2026-05-06 21:19 | 25.07491 | 55.41179 | 18244 ft | 307 kts | 112° |
| 2026-05-06 21:19 | 25.06908 | 55.42615 | 18594 ft | 310 kts | 111° |
| 2026-05-06 21:19 | 25.05769 | 55.45594 | 19129 ft | 324 kts | 111° |
| 2026-05-06 21:19 | 25.05180 | 55.47141 | 19254 ft | 336 kts | 112° |
| 2026-05-06 21:20 | 25.03923 | 55.50415 | 19503 ft | 359 kts | 112° |
| 2026-05-06 21:20 | 25.03259 | 55.52139 | 19657 ft | 370 kts | 112° |
| 2026-05-06 21:20 | 25.01836 | 55.55668 | 19944 ft | 391 kts | 117° |
| 2026-05-06 21:20 | 25.00437 | 55.58344 | 20128 ft | 408 kts | 120° |
| 2026-05-06 21:21 | 24.98971 | 55.61055 | 20308 ft | 423 kts | 120° |
| 2026-05-06 21:21 | 24.97425 | 55.63912 | 20492 ft | 439 kts | 120° |
| 2026-05-06 21:21 | 24.95831 | 55.66859 | 20686 ft | 452 kts | 121° |
| 2026-05-06 21:21 | 24.94746 | 55.68866 | 20936 ft | 458 kts | 121° |
| 2026-05-06 21:22 | 24.92347 | 55.72712 | 21546 ft | 464 kts | 126° |
| 2026-05-06 21:22 | 24.91073 | 55.74635 | 21870 ft | 466 kts | 126° |
| 2026-05-06 21:22 | 24.88503 | 55.78503 | 22501 ft | 472 kts | 127° |
| 2026-05-06 21:22 | 24.86537 | 55.81461 | 22974 ft | 476 kts | 127° |
| 2026-05-06 21:23 | 24.84574 | 55.84417 | 23457 ft | 479 kts | 127° |
| 2026-05-06 21:23 | 24.82590 | 55.87378 | 23908 ft | 483 kts | 127° |
| 2026-05-06 21:23 | 24.81240 | 55.89370 | 24195 ft | 486 kts | 127° |
| 2026-05-06 21:23 | 24.79211 | 55.92350 | 24631 ft | 489 kts | 129° |
| 2026-05-06 21:24 | 24.76125 | 55.96008 | 25125 ft | 493 kts | 137° |
| 2026-05-06 21:24 | 24.73629 | 55.98582 | 25608 ft | 495 kts | 138° |
| 2026-05-06 21:24 | 24.71116 | 56.01158 | 26117 ft | 497 kts | 138° |
| 2026-05-06 21:24 | 24.68590 | 56.03747 | 26557 ft | 500 kts | 138° |
| 2026-05-06 21:25 | 24.66009 | 56.06397 | 26967 ft | 504 kts | 138° |
| 2026-05-06 21:25 | 24.63446 | 56.09030 | 27405 ft | 508 kts | 138° |
| 2026-05-06 21:25 | 24.61715 | 56.10809 | 27702 ft | 510 kts | 138° |
| 2026-05-06 21:25 | 24.59117 | 56.13478 | 28112 ft | 514 kts | 138° |
| 2026-05-06 21:26 | 24.55800 | 56.17224 | 28697 ft | 519 kts | 133° |
| 2026-05-06 21:26 | 24.54201 | 56.19245 | 28992 ft | 521 kts | 132° |
| 2026-05-06 21:26 | 24.51048 | 56.23266 | 29593 ft | 524 kts | 132° |
| 2026-05-06 21:26 | 24.48679 | 56.26286 | 30152 ft | 524 kts | 132° |
| 2026-05-06 21:27 | 24.46284 | 56.29336 | 30781 ft | 522 kts | 132° |
| 2026-05-06 21:27 | 24.43930 | 56.32332 | 31373 ft | 521 kts | 132° |
| 2026-05-06 21:27 | 24.42351 | 56.34339 | 31748 ft | 520 kts | 133° |
| 2026-05-06 21:27 | 24.39231 | 56.38303 | 32441 ft | 519 kts | 133° |
| 2026-05-06 21:28 | 24.36854 | 56.41320 | 32980 ft | 518 kts | 133° |
| 2026-05-06 21:28 | 24.34507 | 56.44296 | 33554 ft | 516 kts | 133° |
| 2026-05-06 21:28 | 24.32180 | 56.47244 | 34178 ft | 513 kts | 133° |
| 2026-05-06 21:28 | 24.29857 | 56.50186 | 34749 ft | 511 kts | 133° |
| 2026-05-06 21:29 | 24.28338 | 56.52207 | 34834 ft | 515 kts | 128° |
| 2026-05-06 21:29 | 24.23463 | 56.59647 | 34816 ft | 512 kts | 127° |
| 2026-05-06 21:30 | 24.19279 | 56.66032 | 34813 ft | 513 kts | 128° |
| 2026-05-06 21:30 | 24.15032 | 56.72464 | 34797 ft | 512 kts | 128° |
| 2026-05-06 21:31 | 24.10837 | 56.78789 | 34795 ft | 512 kts | 128° |
| 2026-05-06 21:31 | 24.06634 | 56.85106 | 34787 ft | 511 kts | 128° |
| 2026-05-06 21:32 | 24.02471 | 56.91346 | 34785 ft | 511 kts | 128° |
| 2026-05-06 21:32 | 23.96185 | 57.00740 | 34786 ft | 510 kts | 128° |
| 2026-05-06 21:33 | 23.91970 | 57.07027 | 34793 ft | 511 kts | 128° |
| 2026-05-06 21:33 | 23.87772 | 57.13281 | 34794 ft | 510 kts | 128° |
| 2026-05-06 21:34 | 23.83556 | 57.19557 | 34791 ft | 511 kts | 127° |
| 2026-05-06 21:34 | 23.79351 | 57.25808 | 34807 ft | 511 kts | 128° |
| 2026-05-06 21:35 | 23.75161 | 57.32105 | 34825 ft | 512 kts | 123° |
| 2026-05-06 21:35 | 23.72171 | 57.39207 | 34867 ft | 516 kts | 106° |
| 2026-05-06 21:36 | 23.70803 | 57.46860 | 34827 ft | 517 kts | 99° |
| 2026-05-06 21:36 | 23.69654 | 57.54637 | 34817 ft | 519 kts | 99° |
| 2026-05-06 21:37 | 23.68511 | 57.62434 | 34824 ft | 519 kts | 99° |
| 2026-05-06 21:37 | 23.67373 | 57.70215 | 34812 ft | 518 kts | 99° |
| 2026-05-06 21:38 | 23.66238 | 57.77976 | 34813 ft | 518 kts | 99° |
| 2026-05-06 21:38 | 23.65102 | 57.85727 | 34838 ft | 518 kts | 99° |
| 2026-05-06 21:39 | 23.63967 | 57.93449 | 34830 ft | 517 kts | 99° |
| 2026-05-06 21:39 | 23.62824 | 58.01204 | 34818 ft | 517 kts | 99° |
| 2026-05-06 21:40 | 23.61684 | 58.08919 | 34828 ft | 517 kts | 99° |
| 2026-05-06 21:40 | 23.60729 | 58.15357 | 34817 ft | 517 kts | 99° |
| 2026-05-06 21:41 | 23.60283 | 58.26297 | 34832 ft | 518 kts | 80° |
| 2026-05-06 21:41 | 23.62259 | 58.33748 | 34808 ft | 518 kts | 66° |
| 2026-05-06 21:41 | 23.64941 | 58.40834 | 34798 ft | 517 kts | 65° |
| 2026-05-06 21:42 | 23.70495 | 58.55327 | 34796 ft | 518 kts | 65° |
| 2026-05-06 21:42 | 23.75998 | 58.69660 | 34765 ft | 517 kts | 66° |
| 2026-05-06 21:43 | 23.81551 | 58.84152 | 34765 ft | 518 kts | 65° |
| 2026-05-06 21:43 | 23.87052 | 58.98548 | 34772 ft | 518 kts | 65° |
| 2026-05-06 21:44 | 23.92562 | 59.13014 | 34750 ft | 518 kts | 65° |
| 2026-05-06 21:44 | 23.98763 | 59.27119 | 34746 ft | 516 kts | 61° |
| 2026-05-06 21:45 | 24.05076 | 59.41184 | 34755 ft | 518 kts | 62° |
| 2026-05-06 21:45 | 24.11345 | 59.55255 | 34752 ft | 517 kts | 62° |
| 2026-05-06 21:46 | 24.17544 | 59.69243 | 34756 ft | 518 kts | 62° |
| 2026-05-06 21:46 | 24.23810 | 59.83431 | 34745 ft | 517 kts | 62° |
| 2026-05-06 21:47 | 24.30054 | 59.97612 | 34762 ft | 517 kts | 62° |
| 2026-05-06 21:47 | 24.36280 | 60.11799 | 34765 ft | 518 kts | 62° |
| 2026-05-06 21:48 | 24.42473 | 60.25946 | 34764 ft | 518 kts | 62° |
| 2026-05-06 21:48 | 24.48643 | 60.40088 | 34766 ft | 518 kts | 62° |
| 2026-05-06 21:49 | 24.54830 | 60.54310 | 34770 ft | 518 kts | 62° |
| 2026-05-06 21:49 | 24.57465 | 60.61589 | 34746 ft | 522 kts | 73° |
| 2026-05-06 21:49 | 24.58364 | 60.69409 | 34747 ft | 524 kts | 88° |
| 2026-05-06 21:50 | 24.58340 | 60.85387 | 34761 ft | 524 kts | 89° |
| 2026-05-06 21:50 | 24.58310 | 61.01219 | 34764 ft | 524 kts | 89° |
| 2026-05-06 21:51 | 24.58275 | 61.17169 | 34763 ft | 524 kts | 89° |
| 2026-05-06 21:51 | 24.58715 | 61.33126 | 34785 ft | 521 kts | 76° |
| 2026-05-06 21:52 | 24.63526 | 61.48058 | 34768 ft | 520 kts | 66° |
| 2026-05-06 21:52 | 24.68774 | 61.62797 | 34773 ft | 520 kts | 65° |
| 2026-05-06 21:53 | 24.73934 | 61.77309 | 34762 ft | 519 kts | 66° |
| 2026-05-06 21:53 | 24.79117 | 61.91931 | 34753 ft | 518 kts | 66° |
| 2026-05-06 21:54 | 24.84273 | 62.06522 | 34762 ft | 520 kts | 66° |
| 2026-05-06 21:54 | 24.89485 | 62.21330 | 34752 ft | 521 kts | 66° |
| 2026-05-06 21:55 | 24.94638 | 62.36020 | 34764 ft | 520 kts | 65° |
| 2026-05-06 21:55 | 24.99771 | 62.50706 | 34749 ft | 520 kts | 65° |
| 2026-05-06 21:56 | 25.04909 | 62.65459 | 34766 ft | 521 kts | 66° |
| 2026-05-06 21:56 | 25.10067 | 62.80328 | 34747 ft | 522 kts | 66° |
| 2026-05-06 21:57 | 25.15169 | 62.95088 | 34764 ft | 520 kts | 65° |
| 2026-05-06 21:57 | 25.20237 | 63.09803 | 34750 ft | 522 kts | 65° |
| 2026-05-06 21:58 | 25.25376 | 63.24686 | 34771 ft | 520 kts | 62° |
| 2026-05-06 21:58 | 25.29083 | 63.31365 | 34788 ft | 513 kts | 45° |
| 2026-05-06 21:58 | 25.34259 | 63.36594 | 34785 ft | 500 kts | 28° |
| 2026-05-06 21:59 | 25.46641 | 63.43116 | 34770 ft | 494 kts | 18° |
| 2026-05-06 21:59 | 25.59148 | 63.49038 | 34789 ft | 492 kts | 17° |
| 2026-05-06 22:00 | 25.71714 | 63.54965 | 34798 ft | 492 kts | 17° |
| 2026-05-06 22:00 | 25.84106 | 63.60812 | 34835 ft | 492 kts | 17° |
| 2026-05-06 22:01 | 25.96447 | 63.66645 | 34854 ft | 492 kts | 17° |
| 2026-05-06 22:01 | 26.09022 | 63.72586 | 34875 ft | 491 kts | 17° |
| 2026-05-06 22:02 | 26.21346 | 63.78413 | 34917 ft | 491 kts | 17° |
| 2026-05-06 22:02 | 26.33802 | 63.84316 | 34933 ft | 491 kts | 17° |
| 2026-05-06 22:03 | 26.46228 | 63.90220 | 34966 ft | 490 kts | 17° |
| 2026-05-06 22:03 | 26.58681 | 63.96150 | 34983 ft | 489 kts | 16° |
| 2026-05-06 22:04 | 26.71151 | 64.02102 | 34982 ft | 490 kts | 16° |
| 2026-05-06 22:04 | 26.83661 | 64.08088 | 35004 ft | 489 kts | 16° |
| 2026-05-06 22:05 | 26.95862 | 64.14740 | 34991 ft | 499 kts | 30° |
| 2026-05-06 22:05 | 27.05942 | 64.25784 | 35036 ft | 512 kts | 39° |
| 2026-05-06 22:06 | 27.15742 | 64.37058 | 35073 ft | 512 kts | 38° |
| 2026-05-06 22:06 | 27.25633 | 64.48441 | 35095 ft | 511 kts | 38° |
| 2026-05-06 22:07 | 27.35371 | 64.59670 | 35070 ft | 513 kts | 38° |
| 2026-05-06 22:07 | 27.45207 | 64.71043 | 35064 ft | 512 kts | 39° |
| 2026-05-06 22:08 | 27.54988 | 64.82381 | 35074 ft | 510 kts | 38° |
| 2026-05-06 22:08 | 27.64853 | 64.93848 | 35027 ft | 511 kts | 38° |
| 2026-05-06 22:09 | 27.74624 | 65.05237 | 34983 ft | 511 kts | 38° |
| 2026-05-06 22:09 | 27.84496 | 65.16773 | 34997 ft | 512 kts | 38° |
| 2026-05-06 22:10 | 27.94255 | 65.28210 | 35004 ft | 513 kts | 38° |
| 2026-05-06 22:10 | 28.03868 | 65.39507 | 35015 ft | 513 kts | 38° |
| 2026-05-06 22:11 | 28.13502 | 65.50862 | 35024 ft | 510 kts | 38° |
| 2026-05-06 22:11 | 28.23169 | 65.62287 | 35083 ft | 509 kts | 37° |
| 2026-05-06 22:12 | 28.32878 | 65.73792 | 35117 ft | 509 kts | 38° |
| 2026-05-06 22:12 | 28.42554 | 65.85291 | 35155 ft | 510 kts | 37° |
| 2026-05-06 22:13 | 28.52288 | 65.96892 | 35229 ft | 507 kts | 37° |
| 2026-05-06 22:13 | 28.61900 | 66.08381 | 35266 ft | 507 kts | 37° |
| 2026-05-06 22:14 | 28.71595 | 66.20000 | 35270 ft | 508 kts | 37° |
| 2026-05-06 22:14 | 28.81130 | 66.31462 | 35293 ft | 506 kts | 37° |
| 2026-05-06 22:15 | 28.90768 | 66.43081 | 35313 ft | 505 kts | 37° |
| 2026-05-06 22:15 | 29.00257 | 66.54552 | 35305 ft | 504 kts | 37° |
| 2026-05-06 22:16 | 29.09727 | 66.66000 | 35322 ft | 503 kts | 37° |
| 2026-05-06 22:16 | 29.19112 | 66.77351 | 35354 ft | 502 kts | 37° |
| 2026-05-06 22:17 | 29.24757 | 66.84191 | 35329 ft | 511 kts | 37° |
| 2026-05-06 22:17 | 29.29717 | 66.90205 | 35287 ft | 524 kts | 37° |
| 2026-05-06 22:18 | 29.34698 | 66.96271 | 35270 ft | 519 kts | 37° |
| 2026-05-06 22:18 | 29.39663 | 67.02322 | 35269 ft | 519 kts | 37° |
| 2026-05-06 22:19 | 29.44620 | 67.08372 | 35244 ft | 519 kts | 37° |
| 2026-05-06 22:19 | 29.49555 | 67.14401 | 35174 ft | 521 kts | 37° |
| 2026-05-06 22:20 | 29.54474 | 67.20423 | 35167 ft | 519 kts | 37° |
| 2026-05-06 22:20 | 29.59404 | 67.26466 | 35134 ft | 519 kts | 37° |
| 2026-05-06 22:21 | 29.64349 | 67.32538 | 35125 ft | 517 kts | 37° |
| 2026-05-06 22:21 | 29.69255 | 67.38569 | 35116 ft | 518 kts | 37° |
| 2026-05-06 22:22 | 29.74186 | 67.44643 | 35042 ft | 515 kts | 37° |
| 2026-05-06 22:22 | 29.79076 | 67.50645 | 35024 ft | 518 kts | 37° |
| 2026-05-06 22:23 | 29.84036 | 67.56743 | 34978 ft | 514 kts | 37° |
| 2026-05-06 22:23 | 29.88943 | 67.62781 | 34972 ft | 517 kts | 37° |
| 2026-05-06 22:24 | 29.93851 | 67.68832 | 34919 ft | 515 kts | 38° |
| 2026-05-06 22:24 | 29.98752 | 67.74887 | 34928 ft | 513 kts | 38° |
| 2026-05-06 22:25 | 30.03636 | 67.80924 | 34964 ft | 516 kts | 38° |
| 2026-05-06 22:25 | 30.08522 | 67.86980 | 34985 ft | 517 kts | 38° |
| 2026-05-06 22:26 | 30.13436 | 67.93026 | 35046 ft | 512 kts | 38° |
| 2026-05-06 22:26 | 30.18341 | 67.99046 | 35112 ft | 513 kts | 37° |
| 2026-05-06 22:27 | 30.23288 | 68.05131 | 35163 ft | 513 kts | 38° |
| 2026-05-06 22:27 | 30.28177 | 68.11153 | 35180 ft | 516 kts | 38° |
| 2026-05-06 22:28 | 30.33115 | 68.17247 | 35177 ft | 512 kts | 38° |
| 2026-05-06 22:28 | 30.37981 | 68.23259 | 35181 ft | 512 kts | 38° |
| 2026-05-06 22:29 | 30.42883 | 68.29327 | 35188 ft | 512 kts | 38° |
| 2026-05-06 22:29 | 30.47806 | 68.35428 | 35188 ft | 513 kts | 38° |
| 2026-05-06 22:30 | 30.52710 | 68.41520 | 35191 ft | 512 kts | 38° |
| 2026-05-06 22:30 | 30.57591 | 68.47589 | 35165 ft | 513 kts | 38° |
| 2026-05-06 22:31 | 30.62501 | 68.53705 | 35162 ft | 512 kts | 38° |
| 2026-05-06 22:31 | 30.67354 | 68.59761 | 35161 ft | 512 kts | 38° |
| 2026-05-06 22:32 | 30.72209 | 68.65828 | 35147 ft | 511 kts | 39° |
| 2026-05-06 22:32 | 30.77106 | 68.71955 | 35133 ft | 515 kts | 39° |
| 2026-05-06 22:33 | 30.81927 | 68.78001 | 35132 ft | 512 kts | 39° |
| 2026-05-06 22:33 | 30.86813 | 68.84138 | 35135 ft | 510 kts | 39° |
| 2026-05-06 22:34 | 30.91685 | 68.90261 | 35147 ft | 514 kts | 39° |
| 2026-05-06 22:34 | 30.96538 | 68.96376 | 35137 ft | 512 kts | 39° |
| 2026-05-06 22:35 | 31.01360 | 69.02463 | 35132 ft | 509 kts | 39° |
| 2026-05-06 22:35 | 31.06208 | 69.08585 | 35147 ft | 512 kts | 39° |
| 2026-05-06 22:36 | 31.11060 | 69.14728 | 35155 ft | 511 kts | 39° |
| 2026-05-06 22:36 | 31.15886 | 69.20847 | 35145 ft | 512 kts | 39° |
| 2026-05-06 22:37 | 31.20701 | 69.26963 | 35142 ft | 509 kts | 39° |
| 2026-05-06 22:37 | 31.25532 | 69.33106 | 35145 ft | 511 kts | 39° |
| 2026-05-06 22:38 | 31.30340 | 69.39233 | 35158 ft | 511 kts | 39° |
| 2026-05-06 22:38 | 31.35230 | 69.45197 | 35169 ft | 504 kts | 32° |
| 2026-05-06 22:39 | 31.40968 | 69.49741 | 35142 ft | 491 kts | 23° |
| 2026-05-06 22:39 | 31.46866 | 69.53902 | 35115 ft | 491 kts | 23° |
| 2026-05-06 22:40 | 31.52745 | 69.58053 | 35102 ft | 491 kts | 23° |
| 2026-05-06 22:40 | 31.58601 | 69.62194 | 35103 ft | 492 kts | 24° |
| 2026-05-06 22:41 | 31.67370 | 69.68408 | 35086 ft | 494 kts | 24° |
| 2026-05-06 22:42 | 31.73302 | 69.72621 | 35056 ft | 491 kts | 24° |
| 2026-05-06 22:42 | 31.79130 | 69.76766 | 35045 ft | 493 kts | 24° |
| 2026-05-06 22:43 | 31.84993 | 69.80943 | 35008 ft | 488 kts | 25° |
| 2026-05-06 22:43 | 31.90875 | 69.85137 | 34979 ft | 492 kts | 24° |
| 2026-05-06 22:44 | 31.96742 | 69.89330 | 34952 ft | 490 kts | 25° |
| 2026-05-06 22:44 | 32.02588 | 69.93513 | 34935 ft | 491 kts | 24° |
| 2026-05-06 22:45 | 32.08496 | 69.97746 | 34924 ft | 492 kts | 25° |
| 2026-05-06 22:45 | 32.14381 | 70.01971 | 34942 ft | 491 kts | 25° |
| 2026-05-06 22:46 | 32.20262 | 70.06197 | 34932 ft | 492 kts | 25° |
| 2026-05-06 22:46 | 32.26100 | 70.10400 | 34930 ft | 492 kts | 25° |
| 2026-05-06 22:47 | 32.31950 | 70.14619 | 34933 ft | 491 kts | 25° |
| 2026-05-06 22:47 | 32.37813 | 70.18850 | 34927 ft | 489 kts | 25° |
| 2026-05-06 22:48 | 32.43733 | 70.22963 | 34917 ft | 488 kts | 24° |
| 2026-05-06 22:48 | 32.49622 | 70.27043 | 34928 ft | 488 kts | 24° |
| 2026-05-06 22:49 | 32.55517 | 70.31140 | 34914 ft | 488 kts | 24° |
| 2026-05-06 22:49 | 32.61416 | 70.35249 | 34907 ft | 487 kts | 24° |
| 2026-05-06 22:50 | 32.67270 | 70.39468 | 34895 ft | 490 kts | 27° |
| 2026-05-06 22:50 | 32.73013 | 70.43880 | 34868 ft | 488 kts | 26° |
| 2026-05-06 22:51 | 32.78746 | 70.48277 | 34855 ft | 488 kts | 26° |
| 2026-05-06 22:51 | 32.84484 | 70.52676 | 34831 ft | 488 kts | 26° |
| 2026-05-06 22:52 | 32.90183 | 70.57046 | 34836 ft | 487 kts | 27° |
| 2026-05-06 22:52 | 32.95883 | 70.61386 | 34841 ft | 486 kts | 26° |
| 2026-05-06 22:53 | 33.01543 | 70.65563 | 34823 ft | 467 kts | 26° |
| 2026-05-06 22:53 | 33.07082 | 70.69652 | 34856 ft | 468 kts | 26° |
| 2026-05-06 22:54 | 33.12622 | 70.73753 | 34888 ft | 464 kts | 26° |
| 2026-05-06 22:54 | 33.18133 | 70.77838 | 34940 ft | 466 kts | 26° |
| 2026-05-06 22:55 | 33.23622 | 70.81917 | 34954 ft | 463 kts | 26° |
| 2026-05-06 22:55 | 33.29128 | 70.86015 | 34986 ft | 463 kts | 26° |
| 2026-05-06 22:56 | 33.34540 | 70.90051 | 34502 ft | 455 kts | 26° |
| 2026-05-06 22:56 | 33.37251 | 70.92074 | 33679 ft | 457 kts | 27° |
| 2026-05-06 22:56 | 33.39975 | 70.94110 | 32785 ft | 461 kts | 28° |
| 2026-05-06 22:56 | 33.42535 | 70.96407 | 31889 ft | 468 kts | 37° |
| 2026-05-06 22:57 | 33.44811 | 70.99180 | 30994 ft | 474 kts | 45° |
| 2026-05-06 22:57 | 33.46735 | 71.02427 | 30363 ft | 474 kts | 54° |
| 2026-05-06 22:57 | 33.48192 | 71.05933 | 29879 ft | 471 kts | 63° |
| 2026-05-06 22:57 | 33.49194 | 71.09652 | 29310 ft | 470 kts | 71° |
| 2026-05-06 22:58 | 33.49719 | 71.13494 | 28756 ft | 469 kts | 79° |
| 2026-05-06 22:58 | 33.49923 | 71.17343 | 28243 ft | 463 kts | 81° |
| 2026-05-06 22:58 | 33.50100 | 71.21178 | 27710 ft | 457 kts | 81° |
| 2026-05-06 22:58 | 33.50286 | 71.24920 | 27179 ft | 451 kts | 81° |
| 2026-05-06 22:59 | 33.50487 | 71.28700 | 26635 ft | 458 kts | 80° |
| 2026-05-06 22:59 | 33.50705 | 71.32546 | 26035 ft | 466 kts | 81° |
| 2026-05-06 22:59 | 33.50925 | 71.36398 | 25436 ft | 462 kts | 80° |
| 2026-05-06 22:59 | 33.51143 | 71.40159 | 24852 ft | 457 kts | 80° |
| 2026-05-06 23:00 | 33.51365 | 71.43958 | 24235 ft | 451 kts | 81° |
| 2026-05-06 23:00 | 33.51583 | 71.47660 | 23635 ft | 445 kts | 80° |
| 2026-05-06 23:00 | 33.51803 | 71.51318 | 23037 ft | 440 kts | 80° |
| 2026-05-06 23:00 | 33.52021 | 71.54936 | 22444 ft | 435 kts | 80° |
| 2026-05-06 23:01 | 33.52237 | 71.58492 | 21883 ft | 429 kts | 80° |
| 2026-05-06 23:01 | 33.52452 | 71.62053 | 21295 ft | 425 kts | 81° |
| 2026-05-06 23:01 | 33.52662 | 71.65543 | 20729 ft | 420 kts | 81° |
| 2026-05-06 23:01 | 33.52871 | 71.69018 | 20170 ft | 415 kts | 81° |
| 2026-05-06 23:02 | 33.53077 | 71.72469 | 19586 ft | 411 kts | 81° |
| 2026-05-06 23:02 | 33.53279 | 71.75842 | 19019 ft | 407 kts | 82° |
| 2026-05-06 23:02 | 33.53478 | 71.79188 | 18458 ft | 403 kts | 82° |
| 2026-05-06 23:02 | 33.53674 | 71.82502 | 17885 ft | 399 kts | 82° |
| 2026-05-06 23:03 | 33.53870 | 71.85825 | 17333 ft | 395 kts | 82° |
| 2026-05-06 23:03 | 33.54062 | 71.89070 | 16756 ft | 392 kts | 82° |
| 2026-05-06 23:03 | 33.54254 | 71.92312 | 16198 ft | 389 kts | 82° |
| 2026-05-06 23:03 | 33.54445 | 71.95534 | 15626 ft | 387 kts | 82° |
| 2026-05-06 23:04 | 33.54630 | 71.98692 | 15067 ft | 384 kts | 82° |
| 2026-05-06 23:04 | 33.54816 | 72.01874 | 14498 ft | 381 kts | 83° |
| 2026-05-06 23:04 | 33.54935 | 72.05037 | 13932 ft | 383 kts | 86° |
| 2026-05-06 23:04 | 33.54915 | 72.08274 | 13360 ft | 391 kts | 87° |
| 2026-05-06 23:05 | 33.54889 | 72.11523 | 12788 ft | 388 kts | 87° |
| 2026-05-06 23:05 | 33.54868 | 72.14746 | 12207 ft | 385 kts | 87° |
| 2026-05-06 23:05 | 33.54850 | 72.17892 | 11861 ft | 376 kts | 87° |
| 2026-05-06 23:05 | 33.54835 | 72.21022 | 11812 ft | 381 kts | 87° |
| 2026-05-06 23:06 | 33.54821 | 72.24168 | 11797 ft | 367 kts | 87° |
| 2026-05-06 23:06 | 33.54804 | 72.27157 | 11797 ft | 348 kts | 87° |
| 2026-05-06 23:06 | 33.54787 | 72.29948 | 11804 ft | 330 kts | 86° |
| 2026-05-06 23:06 | 33.54771 | 72.32655 | 11801 ft | 313 kts | 86° |
| 2026-05-06 23:07 | 33.54757 | 72.35193 | 11807 ft | 298 kts | 86° |
| 2026-05-06 23:07 | 33.54748 | 72.37619 | 11816 ft | 293 kts | 86° |
| 2026-05-06 23:07 | 33.54740 | 72.40058 | 11818 ft | 295 kts | 86° |
| 2026-05-06 23:07 | 33.54731 | 72.42491 | 11733 ft | 288 kts | 85° |
| 2026-05-06 23:08 | 33.54746 | 72.44900 | 11266 ft | 291 kts | 85° |
| 2026-05-06 23:08 | 33.54803 | 72.47317 | 10877 ft | 290 kts | 77° |
| 2026-05-06 23:08 | 33.55476 | 72.49530 | 10424 ft | 278 kts | 50° |
| 2026-05-06 23:08 | 33.56860 | 72.51060 | 9872 ft | 272 kts | 22° |
| 2026-05-06 23:09 | 33.58670 | 72.51547 | 9712 ft | 269 kts | 353° |
| 2026-05-06 23:09 | 33.60417 | 72.50930 | 9698 ft | 259 kts | 326° |
| 2026-05-06 23:09 | 33.61720 | 72.49492 | 9438 ft | 251 kts | 312° |
| 2026-05-06 23:09 | 33.62925 | 72.47980 | 8888 ft | 254 kts | 315° |
| 2026-05-06 23:10 | 33.64171 | 72.46496 | 8397 ft | 253 kts | 315° |
| 2026-05-06 23:10 | 33.65213 | 72.44823 | 8174 ft | 248 kts | 291° |
| 2026-05-06 23:10 | 33.65429 | 72.42861 | 8102 ft | 235 kts | 266° |
| 2026-05-06 23:10 | 33.64934 | 72.41058 | 8040 ft | 223 kts | 233° |
| 2026-05-06 23:11 | 33.63745 | 72.39975 | 7990 ft | 214 kts | 196° |
| 2026-05-06 23:11 | 33.62262 | 72.39869 | 7968 ft | 218 kts | 166° |
| 2026-05-06 23:11 | 33.60925 | 72.40698 | 7934 ft | 217 kts | 128° |
| 2026-05-06 23:11 | 33.60245 | 72.42261 | 7815 ft | 217 kts | 93° |
| 2026-05-06 23:12 | 33.60280 | 72.44031 | 7579 ft | 211 kts | 82° |
| 2026-05-06 23:12 | 33.60289 | 72.45779 | 7313 ft | 209 kts | 89° |
| 2026-05-06 23:12 | 33.60159 | 72.47513 | 7063 ft | 209 kts | 93° |
| 2026-05-06 23:12 | 33.59953 | 72.49228 | 6799 ft | 208 kts | 95° |
| 2026-05-06 23:13 | 33.59710 | 72.50953 | 6532 ft | 208 kts | 96° |
| 2026-05-06 23:13 | 33.59456 | 72.52650 | 6267 ft | 208 kts | 97° |
| 2026-05-06 23:13 | 33.59194 | 72.54348 | 6018 ft | 207 kts | 97° |
| 2026-05-06 23:13 | 33.58931 | 72.56033 | 5769 ft | 205 kts | 97° |
| 2026-05-06 23:14 | 33.58670 | 72.57699 | 5502 ft | 204 kts | 97° |
| 2026-05-06 23:14 | 33.58410 | 72.59370 | 5234 ft | 202 kts | 97° |
| 2026-05-06 23:14 | 33.58153 | 72.61031 | 4972 ft | 201 kts | 97° |
| 2026-05-06 23:14 | 33.57898 | 72.62676 | 4719 ft | 199 kts | 97° |
| 2026-05-06 23:15 | 33.57653 | 72.64257 | 4469 ft | 187 kts | 97° |
| 2026-05-06 23:15 | 33.57423 | 72.65746 | 4232 ft | 176 kts | 97° |
| 2026-05-06 23:15 | 33.57212 | 72.67133 | 4018 ft | 163 kts | 97° |
| 2026-05-06 23:15 | 33.57005 | 72.68470 | 3806 ft | 160 kts | 97° |
| 2026-05-06 23:16 | 33.56804 | 72.69762 | 3597 ft | 158 kts | 97° |
| 2026-05-06 23:16 | 33.56600 | 72.71077 | 3377 ft | 158 kts | 97° |
| 2026-05-06 23:16 | 33.56401 | 72.72360 | 3163 ft | 157 kts | 98° |
| 2026-05-06 23:16 | 33.56202 | 72.73638 | 2947 ft | 155 kts | 98° |
| 2026-05-06 23:17 | 33.56005 | 72.74907 | 2737 ft | 155 kts | 98° |
| 2026-05-06 23:17 | 33.55813 | 72.76170 | 2510 ft | 153 kts | 99° |
| 2026-05-06 23:17 | 33.55604 | 72.77413 | 2310 ft | 151 kts | 101° |
| 2026-05-06 23:17 | 33.55425 | 72.78659 | 2122 ft | 151 kts | 101° |
| 2026-05-06 23:18 | 33.55222 | 72.79885 | 1932 ft | 151 kts | 103° |
| 2026-05-06 23:18 | 33.55036 | 72.81107 | 1773 ft | 142 kts | 103° |
| 2026-05-06 23:18 | 33.54880 | 72.82098 | 1772 ft | 98 kts | 100° |
| 2026-05-06 23:18 | 33.54781 | 72.82761 | 1772 ft | 53 kts | 100° |
| 2026-05-06 23:19 | 33.54789 | 72.83047 | 1772 ft | 27 kts | 77° |
| 2026-05-06 23:19 | 33.54833 | 72.83219 | 1772 ft | 20 kts | 75° |
| 2026-05-06 23:19 | 33.54862 | 72.83358 | 1772 ft | 15 kts | 78° |
| 2026-05-06 23:19 | 33.54905 | 72.83459 | 1772 ft | 12 kts | 27° |
| 2026-05-06 23:20 | 33.54989 | 72.83478 | 1772 ft | 11 kts | 9° |
| 2026-05-06 23:20 | 33.55068 | 72.83495 | 1772 ft | 11 kts | 12° |
| 2026-05-06 23:20 | 33.55140 | 72.83514 | 1772 ft | 10 kts | 13° |
| 2026-05-06 23:20 | 33.55206 | 72.83535 | 1772 ft | 9 kts | 15° |
| 2026-05-06 23:21 | 33.55266 | 72.83544 | 1772 ft | 8 kts | 7° |
| 2026-05-06 23:21 | 33.55316 | 72.83528 | 1772 ft | 9 kts | 305° |
| 2026-05-06 23:21 | 33.55333 | 72.83440 | 1772 ft | 11 kts | 279° |
| 2026-05-06 23:21 | 33.55347 | 72.83362 | 1772 ft | 8 kts | 298° |
| 2026-05-06 23:22 | 33.55389 | 72.83343 | 1772 ft | 6 kts | 7° |
| 2026-05-06 23:22 | 33.55419 | 72.83348 | 1772 ft | 2 kts | 9° |
| 2026-05-06 23:22 | 33.55426 | 72.83350 | 1772 ft | 0 kts | 10° |